Time;durP1;ratioP1;P1;durP2;ratioP2;P2;SDS_P1;SDS_P2;PMS_P1;PMS_P2;Temp;Humidity;BMP_temperature;BMP_pressure;BME280_temperature;BME280_humidity;BME280_pressure;Samples;Min_cycle;Max_cycle;Signal;HPM_P1;HPM_P2
2023/12/28 00:01:48;;;;;;;16.47;7.27;;;3.90;99.90;;;;;;4944983;29;20221;-53
2023/12/28 00:04:14;;;;;;;16.90;6.53;;;4.00;99.90;;;;;;4953994;28;20238;-56
2023/12/28 00:06:39;;;;;;;17.00;6.00;;;4.00;99.90;;;;;;4946151;28;20194;-52
2023/12/28 00:09:06;;;;;;;13.20;5.83;;;4.00;99.90;;;;;;4942278;28;20183;-51
2023/12/28 00:11:31;;;;;;;13.03;5.57;;;4.00;99.90;;;;;;4947381;29;20187;-55
2023/12/28 00:13:57;;;;;;;8.57;4.73;;;4.10;99.90;;;;;;4953560;28;20278;-51
2023/12/28 00:16:23;;;;;;;12.00;5.23;;;4.10;99.90;;;;;;4946596;28;20682;-55
2023/12/28 00:18:48;;;;;;;11.97;5.17;;;4.20;99.90;;;;;;4943147;28;20215;-52
2023/12/28 00:21:14;;;;;;;7.03;4.40;;;4.30;99.90;;;;;;4943000;29;20215;-55
2023/12/28 00:23:39;;;;;;;5.70;3.07;;;4.40;99.90;;;;;;4943194;29;20222;-51
2023/12/28 00:26:05;;;;;;;10.53;4.27;;;4.60;99.90;;;;;;4953893;28;20182;-56
2023/12/28 00:28:31;;;;;;;7.27;2.97;;;4.90;99.90;;;;;;4945632;28;20210;-54
2023/12/28 00:30:56;;;;;;;6.47;3.10;;;5.10;99.90;;;;;;4952483;28;20206;-55
2023/12/28 00:33:22;;;;;;;9.00;3.40;;;5.30;99.90;;;;;;4952751;28;20230;-55
2023/12/28 00:35:47;;;;;;;5.47;2.80;;;5.40;99.90;;;;;;4942886;28;20195;-51
2023/12/28 00:38:13;;;;;;;2.67;1.80;;;5.50;99.90;;;;;;4942328;29;20198;-52
2023/12/28 00:40:38;;;;;;;5.07;2.63;;;5.80;99.90;;;;;;4951565;29;20186;-57
2023/12/28 00:43:04;;;;;;;3.57;1.90;;;6.00;99.90;;;;;;4944670;28;20708;-52
2023/12/28 00:45:29;;;;;;;3.63;1.90;;;6.20;99.90;;;;;;4947236;28;20187;-52
2023/12/28 00:47:56;;;;;;;3.47;1.70;;;6.50;99.90;;;;;;4937867;29;20197;-54
2023/12/28 00:50:22;;;;;;;5.40;1.93;;;6.80;99.90;;;;;;4953258;28;20688;-52
2023/12/28 00:52:48;;;;;;;3.33;1.60;;;6.90;99.90;;;;;;4944317;28;20208;-51
2023/12/28 00:55:13;;;;;;;8.00;1.83;;;7.00;99.90;;;;;;4947413;28;20722;-53
2023/12/28 00:57:39;;;;;;;5.17;1.80;;;7.10;99.90;;;;;;4943343;29;20197;-55
2023/12/28 01:00:05;;;;;;;3.63;1.70;;;7.20;99.90;;;;;;4945137;28;20192;-52
2023/12/28 01:02:31;;;;;;;6.00;2.30;;;7.30;99.90;;;;;;4943795;28;20305;-59
2023/12/28 01:04:56;;;;;;;7.40;1.83;;;7.30;99.90;;;;;;4944981;28;20214;-51
2023/12/28 01:07:22;;;;;;;3.00;1.53;;;7.40;99.90;;;;;;4952965;28;20190;-52
2023/12/28 01:09:47;;;;;;;3.77;1.70;;;7.40;99.90;;;;;;4934478;28;20239;-53
2023/12/28 01:12:13;;;;;;;4.70;1.80;;;7.50;99.90;;;;;;4946942;28;20221;-55
2023/12/28 01:14:38;;;;;;;3.27;1.37;;;7.70;99.90;;;;;;4944707;28;20187;-53
2023/12/28 01:17:04;;;;;;;3.97;1.63;;;7.80;99.90;;;;;;4952997;28;20206;-54
2023/12/28 01:19:29;;;;;;;4.63;2.00;;;7.80;99.90;;;;;;4944757;28;20697;-55
2023/12/28 01:21:55;;;;;;;4.27;1.87;;;7.80;99.90;;;;;;4952130;28;20218;-56
2023/12/28 01:24:21;;;;;;;5.07;1.90;;;7.80;99.90;;;;;;4945966;28;20639;-52
2023/12/28 01:26:46;;;;;;;4.10;1.80;;;7.70;99.90;;;;;;4951734;29;20603;-52
2023/12/28 01:29:12;;;;;;;3.87;1.70;;;7.70;99.90;;;;;;4952606;28;20189;-52
2023/12/28 01:31:38;;;;;;;4.03;1.97;;;7.60;99.90;;;;;;4936289;28;20270;-53
2023/12/28 01:34:04;;;;;;;4.13;1.80;;;7.60;99.90;;;;;;4947537;28;20592;-51
2023/12/28 01:36:30;;;;;;;3.47;1.73;;;7.50;99.90;;;;;;4941420;29;20186;-53
2023/12/28 01:38:55;;;;;;;3.10;1.80;;;7.50;99.90;;;;;;4937197;29;20281;-57
2023/12/28 01:41:21;;;;;;;4.03;2.13;;;7.40;99.90;;;;;;4952680;28;20662;-55
2023/12/28 01:43:47;;;;;;;3.80;1.90;;;7.30;99.90;;;;;;4943636;28;20221;-55
2023/12/28 01:46:18;;;;;;;5.30;2.20;;;7.20;99.90;;;;;;4952556;28;20190;-54
2023/12/28 01:48:46;;;;;;;3.37;1.80;;;7.20;99.90;;;;;;4944376;28;20183;-55
2023/12/28 01:51:14;;;;;;;6.13;2.50;;;7.20;99.90;;;;;;4952604;28;20265;-53
2023/12/28 01:53:40;;;;;;;4.73;2.33;;;7.10;99.90;;;;;;4951658;28;20245;-53
2023/12/28 01:56:06;;;;;;;4.53;1.93;;;7.10;99.90;;;;;;4952515;28;20229;-55
2023/12/28 01:58:34;;;;;;;4.37;2.10;;;7.10;99.90;;;;;;4952157;28;20198;-55
2023/12/28 02:01:01;;;;;;;3.70;1.90;;;7.10;99.90;;;;;;4944377;28;20186;-57
2023/12/28 02:03:27;;;;;;;3.50;2.10;;;7.00;99.90;;;;;;4936036;28;20234;-56
2023/12/28 02:05:53;;;;;;;3.33;2.00;;;7.00;99.90;;;;;;4940851;29;20206;-56
2023/12/28 02:08:19;;;;;;;4.57;2.40;;;7.00;99.90;;;;;;4933180;29;20183;-54
2023/12/28 02:10:44;;;;;;;4.37;2.40;;;7.00;99.90;;;;;;4950788;29;20193;-54
2023/12/28 02:13:10;;;;;;;5.60;2.27;;;7.00;99.90;;;;;;4951479;28;20213;-57
2023/12/28 02:15:35;;;;;;;7.57;2.27;;;7.00;99.90;;;;;;4947063;28;20191;-56
2023/12/28 02:18:10;;;;;;;4.93;2.50;;;7.00;99.90;;;;;;4951964;28;20186;-53
2023/12/28 02:20:36;;;;;;;3.83;2.13;;;6.90;99.90;;;;;;4953382;29;20232;-57
2023/12/28 02:23:02;;;;;;;5.50;2.40;;;6.90;99.90;;;;;;4955441;28;20210;-56
2023/12/28 02:25:27;;;;;;;4.50;2.30;;;6.90;99.90;;;;;;4948142;28;20655;-54
2023/12/28 02:27:53;;;;;;;3.83;2.30;;;6.90;99.90;;;;;;4955868;28;20189;-52
2023/12/28 02:30:22;;;;;;;4.03;2.10;;;6.90;99.90;;;;;;4949152;28;20671;-54
2023/12/28 02:33:06;;;;;;;5.83;2.47;;;6.90;99.90;;;;;;4954014;28;20305;-53
2023/12/28 02:35:37;;;;;;;5.87;2.10;;;6.90;99.90;;;;;;4939567;28;20183;-56
2023/12/28 02:38:09;;;;;;;4.90;2.20;;;7.00;99.90;;;;;;4943591;28;20273;-57
2023/12/28 02:40:40;;;;;;;4.53;2.27;;;7.10;99.90;;;;;;4944988;29;20214;-55
2023/12/28 02:43:09;;;;;;;3.90;2.27;;;7.20;99.90;;;;;;4947017;28;20218;-54
2023/12/28 02:45:35;;;;;;;8.43;2.53;;;7.20;99.90;;;;;;4947607;28;20179;-53
2023/12/28 02:48:01;;;;;;;3.97;2.20;;;7.30;99.90;;;;;;4947759;28;20189;-56
2023/12/28 02:50:27;;;;;;;4.97;2.30;;;7.30;99.90;;;;;;4955487;28;20773;-54
2023/12/28 02:52:52;;;;;;;4.07;2.10;;;7.30;99.90;;;;;;4951576;28;20203;-53
2023/12/28 02:55:18;;;;;;;5.33;2.13;;;7.30;99.90;;;;;;4950646;29;20190;-51
2023/12/28 02:57:44;;;;;;;8.30;2.40;;;7.30;99.90;;;;;;4947263;28;20221;-56
2023/12/28 03:00:10;;;;;;;5.60;2.70;;;7.40;99.90;;;;;;4955218;28;20237;-54
2023/12/28 03:02:37;;;;;;;6.63;2.37;;;7.40;99.90;;;;;;4953539;28;20304;-57
2023/12/28 03:05:06;;;;;;;4.47;2.27;;;7.40;99.90;;;;;;4948386;29;20178;-56
2023/12/28 03:07:36;;;;;;;5.70;2.23;;;7.40;99.90;;;;;;4947278;28;20183;-55
2023/12/28 03:10:02;;;;;;;4.50;2.50;;;7.40;99.90;;;;;;4955436;28;20186;-55
2023/12/28 03:12:29;;;;;;;3.73;1.83;;;7.40;99.90;;;;;;4939053;28;20199;-52
2023/12/28 03:14:55;;;;;;;6.17;2.30;;;7.50;99.90;;;;;;4954967;28;20178;-54
2023/12/28 03:17:20;;;;;;;4.47;2.00;;;7.40;99.90;;;;;;4955063;28;20205;-56
2023/12/28 03:19:46;;;;;;;2.77;1.77;;;7.40;99.90;;;;;;4947022;28;20191;-56
2023/12/28 03:22:12;;;;;;;3.80;1.90;;;7.50;99.90;;;;;;4946225;28;20210;-55
2023/12/28 03:24:38;;;;;;;4.87;2.10;;;7.50;99.90;;;;;;4953558;29;20190;-55
2023/12/28 03:27:04;;;;;;;5.90;2.03;;;7.60;99.90;;;;;;4954136;28;20190;-57
2023/12/28 03:29:30;;;;;;;6.07;2.40;;;7.50;99.90;;;;;;4947148;28;20198;-54
2023/12/28 03:31:55;;;;;;;4.37;2.10;;;7.60;99.90;;;;;;4942903;29;20191;-53
2023/12/28 03:34:22;;;;;;;3.40;2.00;;;7.60;99.90;;;;;;4935457;29;20207;-53
2023/12/28 03:36:48;;;;;;;2.90;1.60;;;7.60;99.90;;;;;;4951225;29;20249;-57
2023/12/28 03:39:14;;;;;;;8.33;2.00;;;7.60;99.90;;;;;;4949214;29;20191;-52
2023/12/28 03:41:39;;;;;;;3.83;1.93;;;7.60;99.90;;;;;;4953839;28;20190;-55
2023/12/28 03:44:05;;;;;;;3.03;1.60;;;7.60;99.90;;;;;;4954338;28;20273;-55
2023/12/28 03:46:31;;;;;;;2.70;1.70;;;7.70;99.90;;;;;;4946613;28;20195;-56
2023/12/28 03:48:56;;;;;;;4.07;2.13;;;7.70;99.90;;;;;;4954441;28;20642;-55
2023/12/28 03:51:22;;;;;;;4.73;2.30;;;7.70;99.90;;;;;;4947477;28;20183;-54
2023/12/28 03:53:47;;;;;;;4.00;2.10;;;7.70;99.90;;;;;;4944654;29;20302;-51
2023/12/28 03:56:26;;;;;;;7.43;2.30;;;7.80;99.90;;;;;;4940750;28;20195;-54
2023/12/28 03:58:52;;;;;;;3.97;2.07;;;7.70;99.90;;;;;;4950858;29;20179;-54
2023/12/28 04:01:19;;;;;;;6.33;2.10;;;7.70;99.90;;;;;;4949318;29;20662;-55
2023/12/28 04:03:45;;;;;;;3.77;2.00;;;7.70;99.90;;;;;;4953290;28;20210;-52
2023/12/28 04:06:12;;;;;;;4.77;2.20;;;7.70;99.90;;;;;;4946153;28;20238;-55
2023/12/28 04:08:38;;;;;;;4.27;2.07;;;7.60;99.90;;;;;;4945162;28;20202;-53
2023/12/28 04:11:03;;;;;;;3.40;2.07;;;7.60;99.90;;;;;;4943001;29;20659;-54
2023/12/28 04:13:29;;;;;;;7.00;2.53;;;7.70;99.90;;;;;;4949948;28;20313;-55
2023/12/28 04:15:55;;;;;;;3.90;2.33;;;7.60;99.90;;;;;;4953845;28;20620;-53
2023/12/28 04:18:20;;;;;;;4.07;2.07;;;7.60;99.90;;;;;;4947337;28;20194;-58
2023/12/28 04:20:46;;;;;;;5.60;2.00;;;7.70;99.90;;;;;;4952388;29;20720;-55
2023/12/28 04:23:11;;;;;;;3.50;1.80;;;7.70;99.90;;;;;;4953108;28;20222;-56
2023/12/28 04:25:37;;;;;;;3.40;2.20;;;7.60;99.90;;;;;;4938090;28;20206;-55
2023/12/28 04:28:03;;;;;;;4.23;2.47;;;7.60;99.90;;;;;;4946016;28;20650;-58
2023/12/28 04:30:28;;;;;;;3.97;2.33;;;7.60;99.90;;;;;;4945777;28;20682;-55
2023/12/28 04:32:54;;;;;;;5.40;2.60;;;7.50;99.90;;;;;;4944782;28;20717;-54
2023/12/28 04:35:19;;;;;;;5.53;2.50;;;7.50;99.90;;;;;;4945665;28;20677;-54
2023/12/28 04:37:45;;;;;;;4.10;1.97;;;7.60;99.90;;;;;;4951600;28;20186;-55
2023/12/28 04:40:10;;;;;;;4.00;2.30;;;7.50;99.90;;;;;;4948019;29;20187;-54
2023/12/28 04:42:36;;;;;;;6.07;2.93;;;7.50;99.90;;;;;;4945011;28;20219;-55
2023/12/28 04:45:02;;;;;;;5.37;2.63;;;7.60;99.90;;;;;;4953288;28;20602;-51
2023/12/28 04:47:27;;;;;;;7.13;2.57;;;7.60;99.90;;;;;;4945536;28;20186;-53
2023/12/28 04:49:53;;;;;;;5.40;2.57;;;7.60;99.90;;;;;;4934492;28;20218;-56
2023/12/28 04:52:18;;;;;;;9.97;2.67;;;7.70;99.90;;;;;;4932206;29;20211;-51
2023/12/28 04:54:44;;;;;;;5.77;2.73;;;7.70;99.90;;;;;;4950038;29;20194;-53
2023/12/28 04:57:10;;;;;;;5.93;2.63;;;7.70;99.90;;;;;;4936282;29;20191;-55
2023/12/28 04:59:39;;;;;;;5.50;1.90;;;7.60;99.90;;;;;;4941453;29;20191;-53
2023/12/28 05:02:05;;;;;;;4.80;2.57;;;7.60;99.90;;;;;;4944563;28;20231;-56
2023/12/28 05:04:31;;;;;;;4.50;2.00;;;7.50;99.90;;;;;;4953329;28;20201;-57
2023/12/28 05:06:56;;;;;;;5.37;2.17;;;7.50;99.90;;;;;;4953321;28;20178;-55
2023/12/28 05:09:22;;;;;;;8.70;2.77;;;7.60;99.90;;;;;;4938461;28;20270;-55
2023/12/28 05:11:47;;;;;;;4.67;2.17;;;7.50;99.90;;;;;;4941105;29;20207;-54
2023/12/28 05:14:13;;;;;;;5.47;2.60;;;7.50;99.90;;;;;;4941654;29;20625;-54
2023/12/28 05:16:38;;;;;;;3.73;2.10;;;7.40;99.90;;;;;;4950497;29;20182;-51
2023/12/28 05:19:04;;;;;;;6.30;2.40;;;7.30;99.90;;;;;;4952930;28;20174;-54
2023/12/28 05:21:29;;;;;;;2.97;1.70;;;7.30;99.90;;;;;;4944828;28;20191;-53
2023/12/28 05:23:55;;;;;;;5.53;2.13;;;7.30;99.90;;;;;;4944683;28;20297;-58
2023/12/28 05:26:20;;;;;;;5.37;2.10;;;7.30;99.90;;;;;;4952802;28;20249;-53
2023/12/28 05:28:46;;;;;;;3.07;1.70;;;7.30;99.90;;;;;;4934687;28;20178;-52
2023/12/28 05:31:13;;;;;;;3.57;2.20;;;7.20;99.90;;;;;;4946743;29;20190;-54
2023/12/28 05:33:38;;;;;;;8.43;2.77;;;7.20;99.90;;;;;;4950640;28;20233;-53
2023/12/28 05:36:05;;;;;;;5.53;2.33;;;7.20;99.90;;;;;;4941228;29;20187;-52
2023/12/28 05:38:30;;;;;;;3.53;2.00;;;7.20;99.90;;;;;;4941266;29;20195;-55
2023/12/28 05:40:56;;;;;;;7.53;2.80;;;7.20;99.90;;;;;;4944514;28;20182;-50
2023/12/28 05:43:22;;;;;;;4.60;2.03;;;7.20;99.90;;;;;;4943726;28;20226;-58
2023/12/28 05:45:47;;;;;;;5.40;2.17;;;7.30;99.90;;;;;;4950319;28;20710;-53
2023/12/28 05:48:13;;;;;;;5.13;2.20;;;7.30;99.90;;;;;;4938749;29;20190;-54
2023/12/28 05:50:39;;;;;;;3.70;1.97;;;7.30;99.90;;;;;;4944053;28;20595;-56
2023/12/28 05:53:05;;;;;;;5.67;2.00;;;7.20;99.90;;;;;;4939364;28;20586;-57
2023/12/28 05:55:31;;;;;;;4.50;2.13;;;7.20;99.90;;;;;;4941185;29;20194;-54
2023/12/28 05:57:56;;;;;;;4.70;2.17;;;7.30;99.90;;;;;;4944252;29;20187;-56
2023/12/28 06:00:22;;;;;;;2.87;1.73;;;7.40;99.90;;;;;;4937640;28;20198;-54
2023/12/28 06:02:51;;;;;;;6.03;2.23;;;7.40;99.90;;;;;;4942221;28;20607;-51
2023/12/28 06:05:17;;;;;;;6.87;2.37;;;7.30;99.90;;;;;;4946596;28;20183;-53
2023/12/28 06:07:43;;;;;;;4.37;2.10;;;7.30;99.90;;;;;;4942744;29;20258;-53
2023/12/28 06:10:09;;;;;;;5.63;1.83;;;7.20;99.90;;;;;;4952381;28;20273;-52
2023/12/28 06:12:35;;;;;;;5.43;2.47;;;7.20;99.90;;;;;;4935275;28;20637;-53
2023/12/28 06:15:01;;;;;;;5.73;2.20;;;7.20;99.90;;;;;;4943418;29;20697;-54
2023/12/28 06:17:26;;;;;;;6.30;2.10;;;7.20;99.90;;;;;;4952098;28;20191;-53
2023/12/28 06:19:52;;;;;;;4.57;2.30;;;7.10;99.90;;;;;;4952019;28;20294;-54
2023/12/28 06:22:18;;;;;;;6.10;2.47;;;7.20;99.90;;;;;;4945346;28;20223;-50
2023/12/28 06:24:43;;;;;;;3.30;2.00;;;7.20;99.90;;;;;;4948961;29;20193;-53
2023/12/28 06:27:09;;;;;;;6.50;2.37;;;7.30;99.90;;;;;;4938087;29;20178;-54
2023/12/28 06:29:34;;;;;;;4.57;2.30;;;7.20;99.90;;;;;;4943917;28;20218;-52
2023/12/28 06:32:00;;;;;;;4.10;2.00;;;7.30;99.90;;;;;;4951303;28;20187;-56
2023/12/28 06:34:26;;;;;;;4.23;2.00;;;7.30;99.90;;;;;;4951971;28;20202;-52
2023/12/28 06:36:52;;;;;;;2.97;1.90;;;7.30;99.90;;;;;;4947575;28;20726;-51
2023/12/28 06:39:17;;;;;;;3.60;2.10;;;7.30;99.90;;;;;;4946815;29;20225;-55
2023/12/28 06:41:48;;;;;;;3.07;1.70;;;7.20;99.90;;;;;;4941830;28;20745;-54
2023/12/28 06:44:14;;;;;;;6.37;2.33;;;7.10;99.90;;;;;;4940634;29;20294;-52
2023/12/28 06:46:40;;;;;;;8.60;2.50;;;7.10;99.90;;;;;;4940677;29;20184;-51
2023/12/28 06:49:06;;;;;;;8.23;4.13;;;7.00;99.90;;;;;;4937655;29;20225;-54
2023/12/28 06:51:32;;;;;;;5.93;2.17;;;7.00;99.90;;;;;;4943678;28;20242;-54
2023/12/28 06:53:58;;;;;;;4.60;2.23;;;7.00;99.90;;;;;;4940527;29;20678;-53
2023/12/28 06:56:24;;;;;;;5.63;2.13;;;7.00;99.90;;;;;;4939997;29;20191;-50
2023/12/28 06:58:50;;;;;;;7.73;2.67;;;6.90;99.90;;;;;;4943640;28;20702;-59
2023/12/28 07:01:16;;;;;;;6.80;3.37;;;6.80;99.90;;;;;;4952441;28;20195;-55
2023/12/28 07:03:41;;;;;;;12.87;3.30;;;6.80;99.90;;;;;;4953289;28;20218;-57
2023/12/28 07:06:08;;;;;;;6.10;2.97;;;6.70;99.90;;;;;;4947470;28;20326;-54
2023/12/28 07:08:33;;;;;;;6.60;2.60;;;6.70;99.90;;;;;;4947020;28;20269;-56
2023/12/28 07:10:59;;;;;;;12.60;3.70;;;6.70;99.90;;;;;;4939656;29;20635;-53
2023/12/28 07:13:25;;;;;;;5.43;2.80;;;6.70;99.90;;;;;;4939402;28;20226;-53
2023/12/28 07:15:51;;;;;;;5.20;2.70;;;6.60;99.90;;;;;;4954115;29;20213;-54
2023/12/28 07:18:16;;;;;;;5.30;2.53;;;6.60;99.90;;;;;;4949298;29;20247;-54
2023/12/28 07:20:42;;;;;;;5.97;2.50;;;6.60;99.90;;;;;;4945020;29;20198;-53
2023/12/28 07:23:08;;;;;;;7.13;3.23;;;6.60;99.90;;;;;;4941668;28;20749;-56
2023/12/28 07:25:34;;;;;;;4.80;2.40;;;6.50;99.90;;;;;;4951724;29;20200;-55
2023/12/28 07:28:00;;;;;;;8.47;2.90;;;6.50;99.90;;;;;;4952949;28;20187;-54
2023/12/28 07:30:25;;;;;;;7.40;3.10;;;6.50;99.90;;;;;;4954715;28;20237;-54
2023/12/28 07:32:51;;;;;;;6.00;3.00;;;6.50;99.90;;;;;;4953938;28;20919;-51
2023/12/28 07:35:17;;;;;;;5.70;3.00;;;6.40;99.90;;;;;;4954515;28;20199;-54
2023/12/28 07:37:44;;;;;;;5.47;2.63;;;6.40;99.90;;;;;;4954796;28;20288;-56
2023/12/28 07:40:11;;;;;;;11.60;3.00;;;6.30;99.90;;;;;;4954804;28;20191;-52
2023/12/28 07:42:36;;;;;;;3.93;1.90;;;6.40;99.90;;;;;;4952587;28;20218;-52
2023/12/28 07:45:02;;;;;;;6.23;2.10;;;6.40;99.90;;;;;;4938365;29;20229;-54
2023/12/28 07:47:28;;;;;;;6.90;2.70;;;6.30;99.90;;;;;;4946024;28;20599;-54
2023/12/28 07:49:54;;;;;;;9.47;3.83;;;6.30;99.90;;;;;;4953976;28;20183;-51
2023/12/28 07:52:20;;;;;;;10.47;3.50;;;6.40;99.90;;;;;;4947032;28;20245;-53
2023/12/28 07:54:45;;;;;;;13.73;4.17;;;6.50;99.90;;;;;;4951958;29;20298;-54
2023/12/28 07:57:11;;;;;;;8.27;2.83;;;6.60;99.90;;;;;;4953597;28;20654;-52
2023/12/28 07:59:36;;;;;;;4.83;2.00;;;6.60;99.90;;;;;;4953347;28;20230;-55
2023/12/28 08:02:02;;;;;;;8.20;3.23;;;6.50;99.90;;;;;;4944956;28;20316;-51
2023/12/28 08:04:27;;;;;;;10.60;4.03;;;6.50;99.90;;;;;;4940142;28;20203;-53
2023/12/28 08:06:53;;;;;;;7.27;3.03;;;6.60;99.90;;;;;;4942517;29;20199;-52
2023/12/28 08:09:18;;;;;;;7.30;2.40;;;6.70;99.90;;;;;;4943616;29;20206;-54
2023/12/28 08:11:44;;;;;;;7.43;2.80;;;6.70;99.90;;;;;;4933909;29;20286;-54
2023/12/28 08:14:10;;;;;;;4.97;2.90;;;6.70;99.90;;;;;;4945090;28;20214;-53
2023/12/28 08:16:35;;;;;;;3.57;2.17;;;6.70;99.90;;;;;;4953437;28;20654;-54
2023/12/28 08:19:01;;;;;;;4.23;2.10;;;6.70;99.90;;;;;;4937932;29;20223;-53
2023/12/28 08:21:27;;;;;;;11.80;2.03;;;6.70;99.90;;;;;;4945164;28;20187;-59
2023/12/28 08:23:52;;;;;;;3.87;1.53;;;6.70;99.90;;;;;;4953103;28;20230;-54
2023/12/28 08:26:18;;;;;;;6.53;2.03;;;6.70;99.90;;;;;;4953746;28;20187;-51
2023/12/28 08:28:43;;;;;;;4.23;1.90;;;6.60;99.90;;;;;;4943813;28;20198;-53
2023/12/28 08:31:09;;;;;;;8.50;2.57;;;6.80;99.90;;;;;;4946852;29;20190;-55
2023/12/28 08:33:38;;;;;;;7.40;2.00;;;6.90;99.90;;;;;;4936771;28;20238;-52
2023/12/28 08:36:05;;;;;;;4.63;1.87;;;7.00;99.90;;;;;;4945615;28;20186;-53
2023/12/28 08:38:31;;;;;;;6.20;1.90;;;7.10;99.90;;;;;;4945800;28;20191;-56
2023/12/28 08:40:56;;;;;;;5.20;2.40;;;7.20;99.90;;;;;;4952767;29;20195;-53
2023/12/28 08:43:22;;;;;;;4.13;1.97;;;7.20;99.90;;;;;;4952527;28;20233;-58
2023/12/28 08:45:48;;;;;;;8.57;2.83;;;7.40;99.90;;;;;;4945414;28;20256;-56
2023/12/28 08:48:13;;;;;;;7.40;2.20;;;7.50;99.90;;;;;;4948036;28;20211;-55
2023/12/28 08:50:39;;;;;;;4.50;2.10;;;7.60;99.90;;;;;;4941511;29;20673;-53
2023/12/28 08:53:04;;;;;;;8.10;2.37;;;7.60;99.90;;;;;;4936998;29;20401;-54
2023/12/28 08:55:30;;;;;;;6.13;1.90;;;7.70;99.90;;;;;;4952575;28;20198;-55
2023/12/28 08:57:55;;;;;;;4.37;1.73;;;7.80;99.90;;;;;;4944583;28;20194;-55
2023/12/28 09:00:21;;;;;;;5.73;2.07;;;7.80;99.90;;;;;;4946253;28;20198;-52
2023/12/28 09:02:47;;;;;;;5.40;2.20;;;7.90;99.90;;;;;;4950118;28;20510;-54
2023/12/28 09:05:12;;;;;;;5.53;1.80;;;8.00;99.90;;;;;;4952567;28;20266;-51
2023/12/28 09:07:42;;;;;;;3.77;1.63;;;8.00;99.90;;;;;;4943902;28;20190;-53
2023/12/28 09:10:10;;;;;;;6.20;2.07;;;8.00;99.90;;;;;;4945640;29;20194;-54
2023/12/28 09:12:35;;;;;;;5.93;2.43;;;8.10;99.90;;;;;;4951418;28;20218;-53
2023/12/28 09:15:01;;;;;;;7.97;3.00;;;8.10;99.90;;;;;;4952134;28;20245;-53
2023/12/28 09:17:26;;;;;;;5.90;2.50;;;8.20;99.90;;;;;;4951978;28;20249;-51
2023/12/28 09:19:52;;;;;;;5.50;2.30;;;8.30;99.90;;;;;;4936320;28;20244;-51
2023/12/28 09:22:18;;;;;;;8.83;2.67;;;8.40;99.90;;;;;;4942308;29;20214;-53
2023/12/28 09:24:43;;;;;;;8.57;4.00;;;8.40;99.90;;;;;;4942188;28;20246;-53
2023/12/28 09:27:09;;;;;;;5.43;2.00;;;8.50;99.90;;;;;;4945431;29;20197;-52
2023/12/28 09:29:35;;;;;;;6.23;1.93;;;8.60;99.90;;;;;;4951887;28;20649;-57
2023/12/28 09:32:00;;;;;;;6.07;2.60;;;8.80;99.90;;;;;;4935687;28;20677;-54
2023/12/28 09:34:26;;;;;;;5.30;2.37;;;8.80;99.90;;;;;;4944029;28;20214;-55
2023/12/28 09:36:51;;;;;;;4.57;2.13;;;9.00;99.90;;;;;;4951861;28;20190;-52
2023/12/28 09:39:17;;;;;;;8.27;2.63;;;9.20;99.90;;;;;;4946261;28;20552;-57
2023/12/28 09:41:49;;;;;;;7.23;2.37;;;9.40;99.90;;;;;;4941224;29;20203;-57
2023/12/28 09:44:16;;;;;;;7.87;2.23;;;9.70;99.90;;;;;;4946405;28;20215;-55
2023/12/28 09:46:44;;;;;;;6.83;1.97;;;10.20;99.90;;;;;;4941872;29;20653;-53
2023/12/28 09:49:11;;;;;;;6.50;3.60;;;11.00;99.90;;;;;;4951830;28;20705;-53
2023/12/28 09:51:36;;;;;;;7.23;1.97;;;11.50;99.90;;;;;;4942910;28;20183;-55
2023/12/28 09:54:03;;;;;;;4.17;1.80;;;11.90;99.90;;;;;;4940592;29;20207;-55
2023/12/28 09:56:30;;;;;;;4.30;1.67;;;11.70;99.90;;;;;;4940614;29;20195;-55
2023/12/28 09:58:57;;;;;;;2.77;1.40;;;12.20;99.90;;;;;;4943141;29;20657;-55
2023/12/28 10:01:23;;;;;;;5.33;1.90;;;12.60;99.90;;;;;;4951681;28;20564;-55
2023/12/28 10:03:48;;;;;;;6.33;1.60;;;12.70;99.90;;;;;;4950869;28;20219;-53
2023/12/28 10:06:15;;;;;;;4.93;1.53;;;12.10;99.90;;;;;;4946591;28;20211;-53
2023/12/28 10:08:48;;;;;;;7.60;1.60;;;11.80;99.90;;;;;;4941181;29;20219;-56
2023/12/28 10:11:18;;;;;;;7.40;1.60;;;11.30;99.90;;;;;;4951719;28;20182;-54
2023/12/28 10:13:44;;;;;;;4.07;1.50;;;11.00;99.90;;;;;;4941573;28;20278;-53
2023/12/28 10:16:11;;;;;;;5.13;1.73;;;11.00;99.90;;;;;;4937017;29;20187;-53
2023/12/28 10:18:40;;;;;;;4.60;1.40;;;11.10;99.90;;;;;;4943828;28;20195;-52
2023/12/28 10:21:05;;;;;;;8.17;2.00;;;11.30;99.90;;;;;;4932443;29;20191;-57
2023/12/28 10:23:32;;;;;;;5.47;1.67;;;11.20;99.90;;;;;;4947043;28;20219;-56
2023/12/28 10:25:58;;;;;;;5.43;1.77;;;11.20;99.90;;;;;;4940752;28;20183;-56
2023/12/28 10:28:24;;;;;;;11.87;2.87;;;11.30;99.90;;;;;;4940175;29;20266;-55
2023/12/28 10:30:55;;;;;;;4.37;1.67;;;11.20;99.90;;;;;;4940881;29;20191;-57
2023/12/28 10:33:20;;;;;;;7.53;1.77;;;11.00;99.90;;;;;;4936796;28;20234;-57
2023/12/28 10:35:46;;;;;;;5.37;1.60;;;10.90;99.90;;;;;;4942729;29;20195;-54
2023/12/28 10:38:16;;;;;;;2.00;1.13;;;10.80;99.90;;;;;;4950429;28;20234;-57
2023/12/28 10:40:43;;;;;;;4.70;1.90;;;10.90;99.90;;;;;;4951919;29;20272;-58
2023/12/28 10:43:14;;;;;;;5.30;1.93;;;11.00;99.90;;;;;;4943165;28;20210;-52
2023/12/28 10:45:40;;;;;;;8.30;2.23;;;11.20;99.90;;;;;;4951712;29;20265;-57
2023/12/28 10:48:07;;;;;;;3.87;1.47;;;11.20;99.90;;;;;;4947195;28;20190;-57
2023/12/28 10:50:37;;;;;;;6.73;1.50;;;11.40;99.90;;;;;;4947218;28;20265;-54
2023/12/28 10:53:27;;;;;;;5.13;1.83;;;11.50;99.90;;;;;;4942435;28;20500;-51
2023/12/28 10:56:06;;;;;;;5.13;1.67;;;11.60;99.90;;;;;;4933918;29;20203;-53
2023/12/28 10:58:48;;;;;;;4.67;1.53;;;11.50;99.90;;;;;;4947514;28;20234;-53
2023/12/28 11:01:23;;;;;;;5.47;1.30;;;11.40;99.90;;;;;;4935829;29;20197;-52
2023/12/28 11:03:58;;;;;;;2.83;1.10;;;11.30;99.90;;;;;;4943204;28;20281;-52
2023/12/28 11:06:26;;;;;;;3.90;1.20;;;11.30;99.90;;;;;;4935790;29;20247;-52
2023/12/28 11:08:54;;;;;;;3.23;1.30;;;11.30;99.90;;;;;;4945371;29;20202;-57
2023/12/28 11:11:21;;;;;;;5.73;1.60;;;11.40;99.90;;;;;;4948942;28;20194;-56
2023/12/28 11:13:48;;;;;;;6.33;1.27;;;11.50;99.90;;;;;;4951770;28;20564;-54
2023/12/28 11:16:14;;;;;;;4.43;1.40;;;11.50;99.90;;;;;;4954611;28;20701;-53
2023/12/28 11:18:40;;;;;;;5.30;1.60;;;11.30;99.90;;;;;;4954278;28;20637;-55
2023/12/28 11:21:06;;;;;;;6.40;1.60;;;11.20;99.90;;;;;;4942601;28;20663;-56
2023/12/28 11:23:32;;;;;;;4.83;1.70;;;11.30;99.90;;;;;;4941991;28;20218;-56
2023/12/28 11:25:58;;;;;;;4.87;1.00;;;11.50;99.90;;;;;;4938482;28;20182;-55
2023/12/28 11:28:24;;;;;;;4.17;1.30;;;11.70;99.90;;;;;;4954632;28;20189;-55
2023/12/28 11:30:51;;;;;;;5.90;1.30;;;12.00;99.90;;;;;;4944676;28;20187;-55
2023/12/28 11:33:17;;;;;;;4.33;1.37;;;12.10;99.90;;;;;;4947841;29;20241;-54
2023/12/28 11:35:47;;;;;;;6.77;1.63;;;12.30;99.90;;;;;;4945616;28;20643;-54
2023/12/28 11:38:15;;;;;;;6.33;1.57;;;12.50;99.90;;;;;;4946709;28;20613;-57
2023/12/28 11:40:42;;;;;;;5.83;1.07;;;12.40;99.90;;;;;;4953947;28;20650;-56
2023/12/28 11:43:18;;;;;;;4.90;1.53;;;12.50;99.90;;;;;;4949153;28;20227;-52
2023/12/28 11:45:50;;;;;;;4.77;1.23;;;12.70;99.90;;;;;;4944215;29;20626;-56
2023/12/28 11:48:24;;;;;;;2.30;1.17;;;12.90;99.90;;;;;;4953396;28;20662;-53
2023/12/28 11:50:50;;;;;;;3.23;1.27;;;13.20;99.90;;;;;;4943977;28;20654;-57
2023/12/28 11:53:16;;;;;;;4.93;1.13;;;13.40;99.90;;;;;;4942148;28;20208;-57
2023/12/28 11:55:42;;;;;;;7.53;1.70;;;13.40;99.90;;;;;;4942541;29;20198;-52
2023/12/28 11:58:07;;;;;;;3.37;1.10;;;13.80;99.90;;;;;;4945883;29;20221;-52
2023/12/28 12:00:33;;;;;;;4.43;1.30;;;14.40;99.90;;;;;;4953410;28;20645;-53
2023/12/28 12:02:58;;;;;;;4.10;1.10;;;14.40;99.90;;;;;;4952609;28;20217;-51
2023/12/28 12:05:24;;;;;;;5.70;1.20;;;14.20;99.90;;;;;;4953623;28;20217;-52
2023/12/28 12:07:50;;;;;;;5.73;1.53;;;14.50;99.90;;;;;;4945745;28;20229;-51
2023/12/28 12:10:16;;;;;;;6.13;2.10;;;14.60;99.90;;;;;;4953729;28;20241;-53
2023/12/28 12:12:42;;;;;;;8.43;2.50;;;14.60;99.90;;;;;;4944193;28;20222;-53
2023/12/28 12:15:08;;;;;;;9.10;1.90;;;14.50;99.90;;;;;;4938366;29;20282;-51
2023/12/28 12:17:34;;;;;;;6.20;1.60;;;14.60;99.90;;;;;;4948052;28;20707;-56
2023/12/28 12:20:02;;;;;;;5.17;1.73;;;14.20;99.90;;;;;;4950386;28;20190;-53
2023/12/28 12:22:27;;;;;;;6.00;1.80;;;14.00;99.90;;;;;;4952546;28;20222;-52
2023/12/28 12:24:54;;;;;;;2.77;1.53;;;13.90;99.90;;;;;;4948743;29;20684;-51
2023/12/28 12:27:20;;;;;;;10.83;1.60;;;13.80;99.90;;;;;;4939868;29;20245;-57
2023/12/28 12:29:45;;;;;;;7.77;2.50;;;13.40;99.90;;;;;;4945236;28;20265;-56
2023/12/28 12:32:11;;;;;;;5.90;1.80;;;13.10;99.90;;;;;;4952520;28;20617;-53
2023/12/28 12:34:39;;;;;;;7.17;1.50;;;12.70;99.90;;;;;;4943862;28;20201;-52
2023/12/28 12:37:05;;;;;;;3.83;1.40;;;12.70;99.90;;;;;;4945669;29;20190;-59
2023/12/28 12:39:32;;;;;;;4.37;1.13;;;12.90;99.90;;;;;;4953200;28;20201;-53
2023/12/28 12:41:57;;;;;;;6.67;1.10;;;13.00;99.90;;;;;;4952068;28;20217;-56
2023/12/28 12:44:23;;;;;;;5.10;1.30;;;13.10;99.90;;;;;;4944920;28;20561;-53
2023/12/28 12:46:57;;;;;;;11.13;1.60;;;13.10;99.90;;;;;;4943105;28;20253;-51
2023/12/28 12:49:22;;;;;;;4.93;2.07;;;12.80;99.90;;;;;;4941997;29;20190;-56